Time;durP1;ratioP1;P1;durP2;ratioP2;P2;SDS_P1;SDS_P2;PMS_P1;PMS_P2;Temp;Humidity;BMP_temperature;BMP_pressure;BME280_temperature;BME280_humidity;BME280_pressure;Samples;Min_cycle;Max_cycle;Signal;HPM_P1;HPM_P2
2022/06/25 00:00:55;;;;;;;;;;;19.00;99.90;;;;;;8363459;28;19928;-73
2022/06/25 00:09:31;;;;;;;;;;;19.00;99.90;;;;;;8338294;28;19928;-74
2022/06/25 00:13:34;;;;;;;;;;;18.90;99.90;;;;;;8376557;28;19920;-73
2022/06/25 00:17:35;;;;;;;;;;;18.90;99.90;;;;;;8376799;28;19920;-73
2022/06/25 00:21:37;;;;;;;;;;;18.90;99.90;;;;;;8363962;28;19965;-73
2022/06/25 00:25:39;;;;;;;;;;;18.90;99.90;;;;;;8370910;28;20346;-74
2022/06/25 00:29:41;;;;;;;;;;;18.80;99.90;;;;;;8366612;28;20564;-73
2022/06/25 00:33:42;;;;;;;;;;;18.80;99.90;;;;;;8379792;28;19924;-74
2022/06/25 00:37:44;;;;;;;;;;;18.80;99.90;;;;;;8366921;28;19924;-73
2022/06/25 00:41:46;;;;;;;;;;;18.80;99.90;;;;;;8365846;28;19920;-73
2022/06/25 00:45:47;;;;;;;;;;;18.70;99.90;;;;;;8362771;28;19921;-74
2022/06/25 00:49:49;;;;;;;;;;;18.70;99.90;;;;;;8381339;28;20012;-73
2022/06/25 00:53:51;;;;;;;;;;;18.70;99.90;;;;;;8362099;28;19920;-74
2022/06/25 00:57:54;;;;;;;;;;;18.70;99.90;;;;;;8334879;28;19924;-73
2022/06/25 01:01:58;;;;;;;;;;;18.70;99.90;;;;;;8337294;28;19936;-73
2022/06/25 01:06:00;;;;;;;;;;;18.60;99.90;;;;;;8372782;28;19928;-73
2022/06/25 01:10:02;;;;;;;;;;;18.60;99.90;;;;;;8363707;28;19920;-73
2022/06/25 01:14:09;;;;;;;;;;;18.60;99.90;;;;;;8368529;28;20433;-74
2022/06/25 01:18:11;;;;;;;;;;;18.60;99.90;;;;;;8372605;28;19931;-73
2022/06/25 01:22:12;;;;;;;;;;;18.60;99.90;;;;;;8363032;28;19924;-73
2022/06/25 01:26:14;;;;;;;;;;;18.60;99.90;;;;;;8358110;28;19936;-73
2022/06/25 01:30:16;;;;;;;;;;;18.60;99.90;;;;;;8357084;28;19921;-74
2022/06/25 01:34:17;;;;;;;;;;;18.60;99.90;;;;;;8364207;28;19943;-73
2022/06/25 01:38:19;;;;;;;;;;;18.60;99.90;;;;;;8380297;28;20336;-73
2022/06/25 01:46:45;;;;;;;;;;;18.50;99.90;;;;;;8361248;28;19924;-73
2022/06/25 01:50:48;;;;;;;;;;;18.50;99.90;;;;;;8379000;28;19935;-74
2022/06/25 01:54:49;;;;;;;;;;;18.50;99.90;;;;;;8340834;28;19921;-73
2022/06/25 01:58:51;;;;;;;;;;;18.50;99.90;;;;;;8367320;28;19920;-74
2022/06/25 02:02:53;;;;;;;;;;;18.40;99.90;;;;;;8354762;28;19925;-74
2022/06/25 02:06:55;;;;;;;;;;;18.40;99.90;;;;;;8338272;28;20255;-74
2022/06/25 02:10:57;;;;;;;;;;;18.40;99.90;;;;;;8372861;28;19921;-73
2022/06/25 02:14:59;;;;;;;;;;;18.40;99.90;;;;;;8351318;28;19928;-73
2022/06/25 02:19:01;;;;;;;;;;;18.40;99.90;;;;;;8374263;28;19925;-73
2022/06/25 02:23:02;;;;;;;;;;;18.40;99.90;;;;;;8352454;28;19924;-73
2022/06/25 02:27:04;;;;;;;;;;;18.30;99.90;;;;;;8377970;28;20332;-74
2022/06/25 02:31:06;;;;;;;;;;;18.40;99.90;;;;;;8384255;28;19924;-73
2022/06/25 02:35:08;;;;;;;;;;;18.40;99.90;;;;;;8380771;28;19982;-73
2022/06/25 02:39:09;;;;;;;;;;;18.30;99.90;;;;;;8354389;28;20543;-73
2022/06/25 02:43:11;;;;;;;;;;;18.30;99.90;;;;;;8360839;28;19927;-73
2022/06/25 02:47:13;;;;;;;;;;;18.30;99.90;;;;;;8385843;28;19928;-73
2022/06/25 02:51:14;;;;;;;;;;;18.30;99.90;;;;;;8377033;28;20430;-73
2022/06/25 02:55:16;;;;;;;;;;;18.30;99.90;;;;;;8364344;28;19943;-73
2022/06/25 02:59:18;;;;;;;;;;;18.20;99.90;;;;;;8348288;28;19920;-73
2022/06/25 03:03:19;;;;;;;;;;;18.20;99.90;;;;;;8385851;28;19928;-73
2022/06/25 03:07:21;;;;;;;;;;;18.20;99.90;;;;;;8364782;28;19948;-73
2022/06/25 03:11:23;;;;;;;;;;;18.20;99.90;;;;;;8381717;28;19931;-73
2022/06/25 03:15:24;;;;;;;;;;;18.20;99.90;;;;;;8362894;28;20357;-73
2022/06/25 03:19:26;;;;;;;;;;;18.20;99.90;;;;;;8367240;28;19928;-73
2022/06/25 03:23:28;;;;;;;;;;;18.10;99.90;;;;;;8379134;28;19921;-73
2022/06/25 03:27:29;;;;;;;;;;;18.20;99.90;;;;;;8359932;28;19925;-73
2022/06/25 03:31:31;;;;;;;;;;;18.10;99.90;;;;;;8375479;28;19934;-73
2022/06/25 03:35:33;;;;;;;;;;;18.10;99.90;;;;;;8373661;28;20052;-73
2022/06/25 03:39:35;;;;;;;;;;;18.10;99.90;;;;;;8377090;28;20417;-73
2022/06/25 03:43:37;;;;;;;;;;;18.00;99.90;;;;;;8352994;28;20283;-73
2022/06/25 03:47:38;;;;;;;;;;;18.00;99.90;;;;;;8372941;28;19931;-73
2022/06/25 03:51:40;;;;;;;;;;;18.00;99.90;;;;;;8375702;28;19920;-73
2022/06/25 03:55:42;;;;;;;;;;;18.00;99.90;;;;;;8371734;28;19920;-73
2022/06/25 03:59:53;;;;;;;;;;;18.00;99.90;;;;;;8363981;28;19938;-72
2022/06/25 04:03:55;;;;;;;;;;;18.00;99.90;;;;;;8372624;28;20367;-73
2022/06/25 04:07:57;;;;;;;;;;;18.00;99.90;;;;;;8380139;28;20421;-73
2022/06/25 04:11:58;;;;;;;;;;;18.10;99.90;;;;;;8377746;28;19920;-73
2022/06/25 04:16:00;;;;;;;;;;;18.10;99.90;;;;;;8367883;28;19932;-73
2022/06/25 04:20:02;;;;;;;;;;;18.10;99.90;;;;;;8361137;28;19955;-73
2022/06/25 04:24:04;;;;;;;;;;;18.20;99.90;;;;;;8370170;28;19929;-73
2022/06/25 04:32:27;;;;;;;;;;;18.30;99.90;;;;;;8377694;28;19920;-73
2022/06/25 04:36:29;;;;;;;;;;;18.30;99.90;;;;;;8361919;28;19921;-73
2022/06/25 04:40:31;;;;;;;;;;;18.30;99.90;;;;;;8364701;28;20012;-73
2022/06/25 04:44:32;;;;;;;;;;;18.30;99.90;;;;;;8332920;28;19921;-73
2022/06/25 04:48:34;;;;;;;;;;;18.40;99.90;;;;;;8354626;28;20347;-73
2022/06/25 04:52:36;;;;;;;;;;;18.40;99.90;;;;;;8391638;28;19931;-73
2022/06/25 04:56:38;;;;;;;;;;;18.50;99.90;;;;;;8350030;28;20684;-73
2022/06/25 05:00:40;;;;;;;;;;;18.50;99.90;;;;;;8351549;28;19920;-73
2022/06/25 05:04:41;;;;;;;;;;;18.50;99.90;;;;;;8372037;28;19924;-72
2022/06/25 05:08:43;;;;;;;;;;;18.50;99.90;;;;;;8352203;28;19921;-72
2022/06/25 05:17:05;;;;;;;;;;;18.50;99.90;;;;;;8353603;28;19921;-72
2022/06/25 05:21:07;;;;;;;;;;;18.60;99.90;;;;;;8361473;28;19925;-73
2022/06/25 05:25:09;;;;;;;;;;;18.70;99.90;;;;;;8367840;28;19925;-72
2022/06/25 05:29:11;;;;;;;;;;;18.80;99.90;;;;;;8365914;28;20295;-73
2022/06/25 05:33:12;;;;;;;;;;;18.80;99.90;;;;;;8367041;28;20287;-72
2022/06/25 05:37:15;;;;;;;;;;;18.80;99.90;;;;;;8357746;28;20240;-72
2022/06/25 05:41:16;;;;;;;;;;;18.80;99.90;;;;;;8343433;28;20303;-72
2022/06/25 05:45:18;;;;;;;;;;;18.90;99.90;;;;;;8345017;28;19921;-72
2022/06/25 05:49:20;;;;;;;;;;;18.90;99.90;;;;;;8363856;28;19929;-72
2022/06/25 05:53:21;;;;;;;;;;;18.90;99.90;;;;;;8369082;28;19921;-72
2022/06/25 05:57:23;;;;;;;;;;;19.00;99.90;;;;;;8357943;28;19921;-72
2022/06/25 06:01:25;;;;;;;;;;;19.10;99.90;;;;;;8356958;28;19931;-72
2022/06/25 06:05:27;;;;;;;;;;;19.20;99.90;;;;;;8363178;28;20385;-72
2022/06/25 06:09:29;;;;;;;;;;;19.20;99.90;;;;;;8367203;28;19924;-73
2022/06/25 06:13:30;;;;;;;;;;;19.30;99.90;;;;;;8355819;28;19928;-73
2022/06/25 06:17:32;;;;;;;;;;;19.30;99.90;;;;;;8363591;28;19920;-72
2022/06/25 06:21:34;;;;;;;;;;;19.40;99.90;;;;;;8340522;28;19947;-72
2022/06/25 06:25:36;;;;;;;;;;;19.40;99.90;;;;;;8355566;28;20315;-73
2022/06/25 06:29:38;;;;;;;;;;;19.40;99.90;;;;;;8372602;28;19921;-73
2022/06/25 06:33:39;;;;;;;;;;;19.30;99.90;;;;;;8382664;28;19976;-72
2022/06/25 06:37:41;;;;;;;;;;;19.30;99.90;;;;;;8366941;28;19920;-72
2022/06/25 06:41:43;;;;;;;;;;;19.30;99.90;;;;;;8363522;28;20294;-73
2022/06/25 06:45:44;;;;;;;;;;;19.40;99.90;;;;;;8333316;28;19925;-72
2022/06/25 06:49:46;;;;;;;;;;;19.50;99.90;;;;;;8324969;28;19921;-72
2022/06/25 06:53:48;;;;;;;;;;;19.60;99.90;;;;;;8325163;28;19925;-73
2022/06/25 06:57:49;;;;;;;;;;;19.70;99.90;;;;;;8305793;28;20372;-73
2022/06/25 07:01:51;;;;;;;;;;;19.70;99.90;;;;;;8327907;28;19921;-73
2022/06/25 07:05:53;;;;;;;;;;;19.70;99.90;;;;;;8328903;28;19996;-72
2022/06/25 07:09:54;;;;;;;;;;;19.80;99.90;;;;;;8312574;28;19924;-72
2022/06/25 07:13:57;;;;;;;;;;;19.90;99.90;;;;;;8316944;28;20548;-72
2022/06/25 07:17:59;;;;;;;;;;;20.00;99.90;;;;;;8337852;28;19943;-73
2022/06/25 07:22:00;;;;;;;;;;;19.90;99.90;;;;;;8343533;28;20323;-73
2022/06/25 07:26:02;;;;;;;;;;;19.90;99.90;;;;;;8347053;28;20467;-72
2022/06/25 07:30:07;;;;;;;;;;;19.90;99.90;;;;;;8349122;28;19921;-73
2022/06/25 07:34:08;;;;;;;;;;;19.80;99.90;;;;;;8351387;28;20323;-73
2022/06/25 07:38:10;;;;;;;;;;;19.80;99.90;;;;;;8341611;28;20106;-73
2022/06/25 07:42:12;;;;;;;;;;;19.70;99.90;;;;;;8325871;28;19925;-73
2022/06/25 07:46:14;;;;;;;;;;;19.80;99.90;;;;;;8335951;28;19944;-73
2022/06/25 07:54:36;;;;;;;;;;;20.00;99.90;;;;;;8339330;28;19979;-72
2022/06/25 07:58:38;;;;;;;;;;;20.00;99.90;;;;;;8324976;28;19932;-72
2022/06/25 08:02:40;;;;;;;;;;;20.10;99.90;;;;;;8315912;28;19943;-72
2022/06/25 08:06:41;;;;;;;;;;;20.10;99.90;;;;;;8343143;28;20296;-72
2022/06/25 08:10:43;;;;;;;;;;;20.10;99.90;;;;;;8327723;28;19921;-72
2022/06/25 08:14:44;;;;;;;;;;;20.10;99.90;;;;;;8333285;28;20299;-72
2022/06/25 08:18:46;;;;;;;;;;;20.10;99.90;;;;;;8332376;28;19921;-72
2022/06/25 08:22:48;;;;;;;;;;;20.10;99.90;;;;;;8305691;28;19921;-72
2022/06/25 08:26:49;;;;;;;;;;;20.10;99.90;;;;;;8320583;28;19950;-72
2022/06/25 08:30:51;;;;;;;;;;;20.00;99.90;;;;;;8322110;28;19925;-73
2022/06/25 08:34:53;;;;;;;;;;;20.00;99.90;;;;;;8325693;28;19920;-72
2022/06/25 08:38:54;;;;;;;;;;;20.00;99.90;;;;;;8310364;28;19928;-73
2022/06/25 08:42:56;;;;;;;;;;;20.00;99.90;;;;;;8317752;28;19925;-73
2022/06/25 08:46:58;;;;;;;;;;;19.90;99.90;;;;;;8322019;28;19921;-73
2022/06/25 08:51:01;;;;;;;;;;;20.00;99.90;;;;;;8306728;28;19929;-72
2022/06/25 08:55:03;;;;;;;;;;;20.10;99.90;;;;;;8304180;28;20032;-73
2022/06/25 08:59:05;;;;;;;;;;;20.20;99.90;;;;;;8329838;28;19921;-73
2022/06/25 09:03:07;;;;;;;;;;;20.20;99.90;;;;;;8337918;28;19929;-73
2022/06/25 09:07:11;;;;;;;;;;;20.20;99.90;;;;;;8343228;28;19925;-72
2022/06/25 09:11:12;;;;;;;;;;;20.30;99.90;;;;;;8318902;28;19929;-72
2022/06/25 09:15:18;;;;;;;;;;;20.40;99.90;;;;;;8330866;28;19959;-72
2022/06/25 09:19:34;;;;;;;;;;;20.50;99.90;;;;;;8318418;28;20419;-73
2022/06/25 09:23:54;;;;;;;;;;;20.50;99.90;;;;;;8320958;28;21412;-73
2022/06/25 09:27:59;;;;;;;;;;;20.50;99.90;;;;;;8301221;28;19944;-72
2022/06/25 09:32:01;;;;;;;;;;;20.50;99.90;;;;;;8299540;28;20280;-73
2022/06/25 09:36:03;;;;;;;;;;;20.60;99.90;;;;;;8329102;28;19970;-72
2022/06/25 09:40:05;;;;;;;;;;;20.70;99.90;;;;;;8334750;28;20363;-73
2022/06/25 09:44:18;;;;;;;;;;;20.90;99.90;;;;;;8332076;28;19960;-73
2022/06/25 09:48:20;;;;;;;;;;;20.90;99.90;;;;;;8326139;28;19929;-73
2022/06/25 09:52:22;;;;;;;;;;;20.90;99.90;;;;;;8321844;28;19921;-72
2022/06/25 09:56:25;;;;;;;;;;;20.90;99.90;;;;;;8322619;28;19928;-73
2022/06/25 10:00:27;;;;;;;;;;;20.80;99.90;;;;;;8337829;28;20363;-73
2022/06/25 10:04:30;;;;;;;;;;;20.90;99.90;;;;;;8316256;28;19925;-72
2022/06/25 10:08:33;;;;;;;;;;;20.90;99.90;;;;;;8324470;28;20372;-72
2022/06/25 10:12:35;;;;;;;;;;;20.90;99.90;;;;;;8319774;28;19939;-72
2022/06/25 10:16:37;;;;;;;;;;;20.90;99.90;;;;;;8324798;28;19936;-72
2022/06/25 10:20:39;;;;;;;;;;;21.00;99.90;;;;;;8323225;28;20593;-72
2022/06/25 10:24:44;;;;;;;;;;;21.10;99.90;;;;;;8317066;28;19925;-72
2022/06/25 10:28:46;;;;;;;;;;;21.20;99.90;;;;;;8306375;28;20368;-72
2022/06/25 10:32:49;;;;;;;;;;;21.30;99.90;;;;;;8302128;28;21966;-72
2022/06/25 10:36:52;;;;;;;;;;;21.40;99.90;;;;;;8322039;28;19925;-72
2022/06/25 10:40:57;;;;;;;;;;;21.60;99.90;;;;;;8304642;28;19920;-72
2022/06/25 10:45:14;;;;;;;;;;;21.60;99.90;;;;;;8304510;28;20367;-72
2022/06/25 10:49:19;;;;;;;;;;;21.60;99.90;;;;;;8325310;28;19955;-72
2022/06/25 10:53:24;;;;;;;;;;;21.60;99.90;;;;;;8328435;28;19929;-73
2022/06/25 10:57:37;;;;;;;;;;;21.70;99.90;;;;;;8330926;28;19979;-73
2022/06/25 11:01:39;;;;;;;;;;;21.80;99.90;;;;;;8328321;28;19931;-72
2022/06/25 11:05:41;;;;;;;;;;;21.80;99.90;;;;;;8332691;28;20275;-73
2022/06/25 11:09:54;;;;;;;;;;;21.80;99.90;;;;;;8327575;28;19921;-72
2022/06/25 11:13:56;;;;;;;;;;;21.70;99.90;;;;;;8328237;28;19921;-72
2022/06/25 11:18:05;;;;;;;;;;;21.60;99.90;;;;;;8310016;28;19925;-73
2022/06/25 11:22:07;;;;;;;;;;;21.60;99.90;;;;;;8327746;28;19947;-72
2022/06/25 11:30:30;;;;;;;;;;;21.50;99.90;;;;;;8328024;28;19983;-73
2022/06/25 11:34:32;;;;;;;;;;;21.50;99.90;;;;;;8329289;28;19936;-73
2022/06/25 11:38:34;;;;;;;;;;;21.40;99.90;;;;;;8327511;28;20279;-73
2022/06/25 11:42:35;;;;;;;;;;;21.40;99.90;;;;;;8313527;28;20583;-73
2022/06/25 11:46:37;;;;;;;;;;;21.30;99.90;;;;;;8306002;28;19929;-73
2022/06/25 11:50:39;;;;;;;;;;;21.30;99.90;;;;;;8329475;28;20311;-73
2022/06/25 11:54:41;;;;;;;;;;;21.30;99.90;;;;;;8310711;28;19925;-73
2022/06/25 11:58:44;;;;;;;;;;;21.40;99.90;;;;;;8328928;28;19928;-73
2022/06/25 12:02:45;;;;;;;;;;;21.60;99.90;;;;;;8333715;28;20296;-73
2022/06/25 12:06:47;;;;;;;;;;;21.80;99.90;;;;;;8339623;28;20024;-73
2022/06/25 12:10:51;;;;;;;;;;;21.80;99.90;;;;;;8339067;28;19976;-72
2022/06/25 12:14:53;;;;;;;;;;;21.80;99.90;;;;;;8341294;28;20284;-72
2022/06/25 12:18:56;;;;;;;;;;;21.80;99.90;;;;;;8333659;28;19928;-73
2022/06/25 12:22:57;;;;;;;;;;;21.70;99.90;;;;;;8313330;28;19928;-73
2022/06/25 12:27:00;;;;;;;;;;;21.80;99.90;;;;;;8336956;28;20321;-73
2022/06/25 12:31:09;;;;;;;;;;;21.90;99.90;;;;;;8337026;28;19964;-73
2022/06/25 12:35:21;;;;;;;;;;;22.00;99.90;;;;;;8338149;28;20415;-73
2022/06/25 12:39:34;;;;;;;;;;;22.20;99.90;;;;;;8338980;28;19921;-72
2022/06/25 12:43:45;;;;;;;;;;;22.20;99.90;;;;;;8330560;28;19921;-73
2022/06/25 12:47:47;;;;;;;;;;;22.30;99.90;;;;;;8330650;28;19975;-73
2022/06/25 12:51:48;;;;;;;;;;;22.40;99.90;;;;;;8327011;28;20387;-73
2022/06/25 12:55:50;;;;;;;;;;;22.40;99.90;;;;;;8310110;28;19936;-73
2022/06/25 12:59:52;;;;;;;;;;;22.50;99.90;;;;;;8316214;28;19935;-73
2022/06/25 13:03:54;;;;;;;;;;;22.50;99.90;;;;;;8319364;28;19925;-73
2022/06/25 13:07:55;;;;;;;;;;;22.60;99.90;;;;;;8340653;28;20019;-73
2022/06/25 13:11:57;;;;;;;;;;;22.70;99.90;;;;;;8329099;28;19940;-72
2022/06/25 13:16:00;;;;;;;;;;;22.70;99.90;;;;;;8330046;28;20403;-72
2022/06/25 13:20:02;;;;;;;;;;;22.70;99.90;;;;;;8327323;28;20386;-73
2022/06/25 13:24:04;;;;;;;;;;;22.70;99.90;;;;;;8307346;28;20011;-73
2022/06/25 13:28:06;;;;;;;;;;;22.80;99.90;;;;;;8328628;28;19963;-73
2022/06/25 13:32:07;;;;;;;;;;;22.90;99.90;;;;;;8311320;28;19925;-73
2022/06/25 13:36:09;;;;;;;;;;;23.00;99.90;;;;;;8309525;28;20282;-73
2022/06/25 13:40:12;;;;;;;;;;;23.00;99.90;;;;;;8325443;28;19920;-73
2022/06/25 13:44:13;;;;;;;;;;;23.10;99.90;;;;;;8326743;28;19924;-73
2022/06/25 13:48:20;;;;;;;;;;;23.10;99.90;;;;;;8329462;28;19929;-73
2022/06/25 13:52:22;;;;;;;;;;;23.20;99.90;;;;;;8325650;28;19929;-73
2022/06/25 13:56:24;;;;;;;;;;;23.30;99.90;;;;;;8323835;28;19928;-73
2022/06/25 14:00:26;;;;;;;;;;;23.30;99.90;;;;;;8319220;28;19921;-73
2022/06/25 14:04:28;;;;;;;;;;;23.30;99.90;;;;;;8325365;28;19928;-73
2022/06/25 14:08:30;;;;;;;;;;;23.30;99.90;;;;;;8325049;28;20249;-72
2022/06/25 14:12:32;;;;;;;;;;;23.30;99.90;;;;;;8321211;28;19920;-72
2022/06/25 14:16:34;;;;;;;;;;;23.30;99.90;;;;;;8322250;28;19932;-72
2022/06/25 14:20:36;;;;;;;;;;;23.40;99.90;;;;;;8326534;28;20390;-73
2022/06/25 14:28:59;;;;;;;;;;;23.50;99.90;;;;;;8334295;28;19924;-72
2022/06/25 14:33:02;;;;;;;;;;;23.60;99.90;;;;;;8326660;28;19925;-72
2022/06/25 14:45:45;;;;;;;;;;;23.80;99.90;;;;;;8331960;28;19920;-72
2022/06/25 14:49:46;;;;;;;;;;;23.80;99.90;;;;;;8324877;28;20004;-72
2022/06/25 14:53:48;;;;;;;;;;;23.90;99.90;;;;;;8326046;28;19966;-73
2022/06/25 14:57:50;;;;;;;;;;;23.90;99.90;;;;;;8331333;28;19921;-72
2022/06/25 15:01:51;;;;;;;;;;;23.80;99.90;;;;;;8324963;28;19928;-72
2022/06/25 15:05:54;;;;;;;;;;;23.70;99.90;;;;;;8338267;28;19925;-72
2022/06/25 15:10:03;;;;;;;;;;;23.60;99.90;;;;;;8334491;28;19928;-72
2022/06/25 15:14:05;;;;;;;;;;;23.50;99.90;;;;;;8327193;28;19925;-72
2022/06/25 15:18:07;;;;;;;;;;;23.50;99.90;;;;;;8323372;28;19928;-72
2022/06/25 15:22:08;;;;;;;;;;;23.40;99.90;;;;;;8330629;28;20364;-72
2022/06/25 15:26:10;;;;;;;;;;;23.40;99.90;;;;;;8331338;28;20379;-72
2022/06/25 15:30:11;;;;;;;;;;;23.30;99.90;;;;;;8325433;28;20392;-72
2022/06/25 15:34:13;;;;;;;;;;;23.30;99.90;;;;;;8326136;28;20004;-72
2022/06/25 15:38:15;;;;;;;;;;;23.30;99.90;;;;;;8326792;28;19921;-72
2022/06/25 15:42:17;;;;;;;;;;;23.40;99.90;;;;;;8330848;28;20356;-72
2022/06/25 15:46:19;;;;;;;;;;;23.40;99.90;;;;;;8330651;28;19944;-72
2022/06/25 15:50:20;;;;;;;;;;;23.40;99.90;;;;;;8310273;28;19936;-73
2022/06/25 15:54:22;;;;;;;;;;;23.40;99.90;;;;;;8326433;28;20342;-72
2022/06/25 15:58:24;;;;;;;;;;;23.30;99.90;;;;;;8330322;28;19936;-72
2022/06/25 16:02:25;;;;;;;;;;;23.30;99.90;;;;;;8328641;28;20296;-72
2022/06/25 16:06:27;;;;;;;;;;;23.20;99.90;;;;;;8330172;28;20380;-73
2022/06/25 16:10:29;;;;;;;;;;;23.20;99.90;;;;;;8330405;28;19928;-72
2022/06/25 16:14:31;;;;;;;;;;;23.10;99.90;;;;;;8327859;28;19921;-72
2022/06/25 16:18:34;;;;;;;;;;;23.20;99.90;;;;;;8311137;28;19972;-72
2022/06/25 16:22:36;;;;;;;;;;;23.30;99.90;;;;;;8324425;28;20402;-73
2022/06/25 16:26:39;;;;;;;;;;;23.40;99.90;;;;;;8330989;28;19921;-72
2022/06/25 16:30:41;;;;;;;;;;;23.60;99.90;;;;;;8324961;28;19929;-72
2022/06/25 16:34:43;;;;;;;;;;;23.60;99.90;;;;;;8327763;28;19932;-72
2022/06/25 16:38:45;;;;;;;;;;;23.50;99.90;;;;;;8327385;28;19932;-72
2022/06/25 16:42:46;;;;;;;;;;;23.50;99.90;;;;;;8325814;28;20232;-72
2022/06/25 16:46:48;;;;;;;;;;;23.30;99.90;;;;;;8323263;28;20348;-72
2022/06/25 16:50:50;;;;;;;;;;;23.30;99.90;;;;;;8324497;28;19928;-72
2022/06/25 16:54:55;;;;;;;;;;;23.10;99.90;;;;;;8321913;28;19928;-73
2022/06/25 16:58:58;;;;;;;;;;;22.90;99.90;;;;;;8324714;28;19944;-72
2022/06/25 17:02:59;;;;;;;;;;;22.70;99.90;;;;;;8330855;28;21344;-72
2022/06/25 17:07:01;;;;;;;;;;;22.50;99.90;;;;;;8323712;28;19924;-73
2022/06/25 17:11:03;;;;;;;;;;;22.40;99.90;;;;;;8328940;28;20368;-73
2022/06/25 17:15:05;;;;;;;;;;;22.20;99.90;;;;;;8333406;28;19921;-72
2022/06/25 17:19:07;;;;;;;;;;;22.00;99.90;;;;;;8323112;28;19920;-72
2022/06/25 17:23:09;;;;;;;;;;;21.60;99.90;;;;;;8327233;28;20383;-72
2022/06/25 17:27:10;;;;;;;;;;;21.30;99.90;;;;;;8320362;28;20304;-73
2022/06/25 17:31:12;;;;;;;;;;;21.00;99.90;;;;;;8322386;28;20019;-72
2022/06/25 17:35:14;;;;;;;;;;;20.80;99.90;;;;;;8308064;28;19970;-72
2022/06/25 17:39:15;;;;;;;;;;;20.60;99.90;;;;;;8320485;28;19925;-73
2022/06/25 17:43:17;;;;;;;;;;;20.50;99.90;;;;;;8328540;28;19920;-74
2022/06/25 17:47:19;;;;;;;;;;;20.30;99.90;;;;;;8323724;28;19935;-72
2022/06/25 17:51:21;;;;;;;;;;;20.20;99.90;;;;;;8305517;28;19965;-72
2022/06/25 17:55:22;;;;;;;;;;;20.10;99.90;;;;;;8328465;28;19928;-72
2022/06/25 17:59:24;;;;;;;;;;;20.00;99.90;;;;;;8309181;28;20398;-73
2022/06/25 18:03:26;;;;;;;;;;;20.00;99.90;;;;;;8324982;28;19947;-73
2022/06/25 18:07:28;;;;;;;;;;;20.00;99.90;;;;;;8326815;28;19921;-73
2022/06/25 18:11:30;;;;;;;;;;;20.00;99.90;;;;;;8309440;28;19928;-73
2022/06/25 18:15:32;;;;;;;;;;;20.10;99.90;;;;;;8324271;28;19978;-72
2022/06/25 18:19:34;;;;;;;;;;;20.00;99.90;;;;;;8318369;28;20321;-72
2022/06/25 18:23:35;;;;;;;;;;;20.10;99.90;;;;;;8323230;28;19925;-73
2022/06/25 18:27:37;;;;;;;;;;;20.10;99.90;;;;;;8306682;28;19928;-73
2022/06/25 18:31:39;;;;;;;;;;;20.10;99.90;;;;;;8317659;28;19933;-72
2022/06/25 18:35:41;;;;;;;;;;;20.10;99.90;;;;;;8326687;28;19921;-73
2022/06/25 18:39:42;;;;;;;;;;;20.10;99.90;;;;;;8323659;28;19920;-72
2022/06/25 18:43:44;;;;;;;;;;;20.20;99.90;;;;;;8323409;28;19929;-73
2022/06/25 18:47:46;;;;;;;;;;;20.20;99.90;;;;;;8313448;28;19924;-73
2022/06/25 18:51:48;;;;;;;;;;;20.20;99.90;;;;;;8321259;28;19931;-72
2022/06/25 18:55:49;;;;;;;;;;;20.20;99.90;;;;;;8325543;28;19925;-72
2022/06/25 18:59:51;;;;;;;;;;;20.20;99.90;;;;;;8326491;28;19921;-73
2022/06/25 19:03:53;;;;;;;;;;;20.30;99.90;;;;;;8325401;28;19936;-73
2022/06/25 19:07:55;;;;;;;;;;;20.30;99.90;;;;;;8342706;28;19940;-72
2022/06/25 19:11:57;;;;;;;;;;;20.30;99.90;;;;;;8328639;28;19931;-74
2022/06/25 19:15:59;;;;;;;;;;;20.30;99.90;;;;;;8333177;28;20035;-72
2022/06/25 19:20:02;;;;;;;;;;;20.40;99.90;;;;;;8343033;28;20332;-72
2022/06/25 19:24:04;;;;;;;;;;;20.30;99.90;;;;;;8333870;28;19921;-72
2022/06/25 19:28:05;;;;;;;;;;;20.30;99.90;;;;;;8339534;28;19921;-73
2022/06/25 19:32:08;;;;;;;;;;;20.30;99.90;;;;;;8346175;28;19925;-72
2022/06/25 19:36:09;;;;;;;;;;;20.30;99.90;;;;;;8343186;28;19925;-72
2022/06/25 19:40:11;;;;;;;;;;;20.30;99.90;;;;;;8342263;28;19928;-73
2022/06/25 19:44:13;;;;;;;;;;;20.30;99.90;;;;;;8338147;28;19929;-72
2022/06/25 19:48:14;;;;;;;;;;;20.30;99.90;;;;;;8339590;28;19925;-73
2022/06/25 19:52:17;;;;;;;;;;;20.20;99.90;;;;;;8324059;28;19947;-72
2022/06/25 19:56:18;;;;;;;;;;;20.20;99.90;;;;;;8343244;28;19932;-73
2022/06/25 20:00:20;;;;;;;;;;;20.20;99.90;;;;;;8326160;28;19966;-72
2022/06/25 20:04:22;;;;;;;;;;;20.20;99.90;;;;;;8324779;28;19928;-73
2022/06/25 20:08:23;;;;;;;;;;;20.10;99.90;;;;;;8322381;28;20277;-73
2022/06/25 20:12:25;;;;;;;;;;;20.10;99.90;;;;;;8342541;28;19920;-73
2022/06/25 20:16:28;;;;;;;;;;;20.10;99.90;;;;;;8316919;28;20418;-72
2022/06/25 20:20:29;;;;;;;;;;;20.00;99.90;;;;;;8342956;28;20099;-72
2022/06/25 20:24:31;;;;;;;;;;;20.00;99.90;;;;;;8338052;28;19921;-72
2022/06/25 20:28:33;;;;;;;;;;;19.90;99.90;;;;;;8327082;28;20372;-73
2022/06/25 20:32:35;;;;;;;;;;;19.90;99.90;;;;;;8345570;28;19965;-72
2022/06/25 20:36:36;;;;;;;;;;;19.90;99.90;;;;;;8339198;28;20238;-72
2022/06/25 20:40:38;;;;;;;;;;;19.90;99.90;;;;;;8339646;28;19932;-72
2022/06/25 20:44:40;;;;;;;;;;;19.80;99.90;;;;;;8338533;28;20264;-72
2022/06/25 20:48:41;;;;;;;;;;;19.80;99.90;;;;;;8340384;28;19924;-72
2022/06/25 20:52:43;;;;;;;;;;;19.70;99.90;;;;;;8341340;28;19928;-72
2022/06/25 20:56:45;;;;;;;;;;;19.70;99.90;;;;;;8341513;28;19921;-73
2022/06/25 21:00:47;;;;;;;;;;;19.70;99.90;;;;;;8340261;28;19932;-72
2022/06/25 21:09:09;;;;;;;;;;;19.60;99.90;;;;;;8381292;28;19920;-72
2022/06/25 21:13:11;;;;;;;;;;;19.60;99.90;;;;;;8347462;28;20249;-72
2022/06/25 21:17:13;;;;;;;;;;;19.60;99.90;;;;;;8372619;28;19920;-72
2022/06/25 21:21:14;;;;;;;;;;;19.60;99.90;;;;;;8368068;28;19921;-73
2022/06/25 21:25:16;;;;;;;;;;;19.60;99.90;;;;;;8357863;28;19921;-72
2022/06/25 21:29:18;;;;;;;;;;;19.60;99.90;;;;;;8361991;28;19928;-72
2022/06/25 21:33:20;;;;;;;;;;;19.50;99.90;;;;;;8365335;28;19921;-72
2022/06/25 21:37:21;;;;;;;;;;;19.50;99.90;;;;;;8374929;28;19920;-72
2022/06/25 21:41:23;;;;;;;;;;;19.50;99.90;;;;;;8357747;28;19922;-73
2022/06/25 21:45:25;;;;;;;;;;;19.50;99.90;;;;;;8355169;28;20855;-72
2022/06/25 21:49:26;;;;;;;;;;;19.50;99.90;;;;;;8376169;28;19920;-73
2022/06/25 21:53:28;;;;;;;;;;;19.50;99.90;;;;;;8349088;28;19928;-72
2022/06/25 21:57:31;;;;;;;;;;;19.40;99.90;;;;;;8371806;28;19931;-72
2022/06/25 22:01:33;;;;;;;;;;;19.30;99.90;;;;;;8362374;28;20046;-72
2022/06/25 22:05:35;;;;;;;;;;;19.20;99.90;;;;;;8378592;28;19932;-72
2022/06/25 22:09:37;;;;;;;;;;;19.00;99.90;;;;;;8374519;28;19932;-72
2022/06/25 22:13:38;;;;;;;;;;;18.80;99.90;;;;;;8373173;28;19920;-72
2022/06/25 22:17:40;;;;;;;;;;;18.80;99.90;;;;;;8361051;28;19928;-72
2022/06/25 22:21:41;;;;;;;;;;;18.80;99.90;;;;;;8374174;28;19939;-72
2022/06/25 22:25:44;;;;;;;;;;;18.80;99.90;;;;;;8377134;28;19933;-72
2022/06/25 22:29:46;;;;;;;;;;;18.90;99.90;;;;;;8347205;28;19925;-72
2022/06/25 22:33:48;;;;;;;;;;;18.90;99.90;;;;;;8376212;28;19924;-72
2022/06/25 22:37:50;;;;;;;;;;;19.00;99.90;;;;;;8372003;28;20351;-72
2022/06/25 22:41:51;;;;;;;;;;;19.00;99.90;;;;;;8369232;28;19932;-72
2022/06/25 22:45:58;;;;;;;;;;;19.00;99.90;;;;;;8352752;28;19927;-72
2022/06/25 22:50:00;;;;;;;;;;;18.80;99.90;;;;;;8363449;28;19924;-72
2022/06/25 22:54:02;;;;;;;;;;;18.70;99.90;;;;;;8373202;28;19967;-72
2022/06/25 22:58:04;;;;;;;;;;;18.60;99.90;;;;;;8376455;28;19928;-72
2022/06/25 23:02:05;;;;;;;;;;;18.60;99.90;;;;;;8367946;28;19928;-72
2022/06/25 23:06:07;;;;;;;;;;;18.60;99.90;;;;;;8353917;28;19924;-72
2022/06/25 23:10:10;;;;;;;;;;;18.60;99.90;;;;;;8383557;28;19920;-72
2022/06/25 23:14:12;;;;;;;;;;;18.60;99.90;;;;;;8353096;28;20232;-72
2022/06/25 23:18:13;;;;;;;;;;;18.60;99.90;;;;;;8370426;28;19924;-72
2022/06/25 23:22:15;;;;;;;;;;;18.70;99.90;;;;;;8365940;28;19940;-73
2022/06/25 23:26:17;;;;;;;;;;;18.70;99.90;;;;;;8360284;28;19932;-72
2022/06/25 23:30:18;;;;;;;;;;;18.60;99.90;;;;;;8373514;28;19927;-72
2022/06/25 23:34:20;;;;;;;;;;;18.60;99.90;;;;;;8372842;28;19959;-72
2022/06/25 23:38:21;;;;;;;;;;;18.70;99.90;;;;;;8376017;28;19936;-72
2022/06/25 23:42:23;;;;;;;;;;;18.70;99.90;;;;;;8380052;28;19927;-72
2022/06/25 23:46:25;;;;;;;;;;;18.70;99.90;;;;;;8356146;28;19928;-72
2022/06/25 23:50:26;;;;;;;;;;;18.70;99.90;;;;;;8375065;28;19927;-72
2022/06/25 23:54:33;;;;;;;;;;;18.80;99.90;;;;;;8366698;28;20364;-72
2022/06/25 23:58:35;;;;;;;;;;;18.80;99.90;;;;;;8366314;28;19927;-72
